Time;durP1;ratioP1;P1;durP2;ratioP2;P2;SDS_P1;SDS_P2;PMS_P1;PMS_P2;Temp;Humidity;BMP_temperature;BMP_pressure;BME280_temperature;BME280_humidity;BME280_pressure;Samples;Min_cycle;Max_cycle;Signal;HPM_P1;HPM_P2
2022/09/25 00:00:43;;;;;;;0.00;0.00;;;12.60;99.90;;;;;;5084969;28;20036;-86
2022/09/25 00:03:11;;;;;;;0.00;0.00;;;12.50;99.90;;;;;;5084691;28;20127;-86
2022/09/25 00:05:39;;;;;;;0.00;0.00;;;12.70;99.90;;;;;;5085205;28;20052;-86
2022/09/25 00:08:09;;;;;;;0.00;0.00;;;12.70;99.90;;;;;;5079340;28;20048;-85
2022/09/25 00:10:39;;;;;;;0.00;0.00;;;12.60;99.90;;;;;;5080609;28;20484;-87
2022/09/25 00:13:06;;;;;;;0.00;0.00;;;;;;;;;;5084972;28;20067;-86
2022/09/25 00:15:33;;;;;;;0.00;0.00;;;;;;;;;;5077438;28;20045;-87
2022/09/25 00:18:01;;;;;;;0.00;0.00;;;;;;;;;;5084331;28;20079;-86
2022/09/25 00:20:28;;;;;;;0.10;0.10;;;12.70;99.90;;;;;;5076152;28;20051;-86
2022/09/25 00:22:55;;;;;;;0.00;0.00;;;12.70;99.90;;;;;;5078746;28;20080;-86
2022/09/25 00:25:26;;;;;;;0.00;0.00;;;12.70;99.90;;;;;;5082469;28;20123;-85
2022/09/25 00:27:54;;;;;;;0.00;0.00;;;12.80;99.90;;;;;;5087728;28;20048;-86
2022/09/25 00:30:22;;;;;;;0.00;0.00;;;12.80;99.90;;;;;;5081016;28;20079;-86
2022/09/25 00:32:49;;;;;;;0.00;0.00;;;12.90;99.90;;;;;;5084968;28;20110;-86
2022/09/25 00:35:16;;;;;;;0.00;0.00;;;12.90;99.90;;;;;;5083834;28;20475;-86
2022/09/25 00:37:43;;;;;;;0.00;0.00;;;12.80;99.90;;;;;;5086280;28;20523;-87
2022/09/25 00:40:10;;;;;;;0.00;0.00;;;12.90;99.90;;;;;;5085773;28;20044;-86
2022/09/25 00:42:39;;;;;;;0.00;0.00;;;12.90;99.90;;;;;;5075523;28;20048;-87
2022/09/25 00:45:12;;;;;;;0.00;0.00;;;12.90;99.90;;;;;;5088457;28;20127;-86
2022/09/25 00:47:53;;;;;;;0.00;0.00;;;12.90;99.90;;;;;;5078202;28;20048;-86
2022/09/25 00:50:27;;;;;;;0.00;0.00;;;13.00;99.90;;;;;;5088463;28;20051;-87
2022/09/25 00:53:02;;;;;;;0.00;0.00;;;13.00;99.90;;;;;;5087169;28;20500;-87
2022/09/25 00:55:31;;;;;;;0.00;0.00;;;12.90;99.90;;;;;;5077712;28;20466;-86
2022/09/25 00:58:01;;;;;;;0.00;0.00;;;13.00;99.90;;;;;;5080732;28;20456;-86
2022/09/25 01:00:28;;;;;;;0.00;0.00;;;;;;;;;;5085518;28;20071;-87
2022/09/25 01:02:56;;;;;;;0.00;0.00;;;12.90;99.90;;;;;;5085757;28;20054;-86
2022/09/25 01:05:28;;;;;;;0.00;0.00;;;12.90;99.90;;;;;;5083870;28;20074;-86
2022/09/25 01:07:57;;;;;;;0.00;0.00;;;13.00;99.90;;;;;;5094041;28;20082;-87
2022/09/25 01:10:25;;;;;;;0.00;0.00;;;13.10;99.90;;;;;;5087357;28;20048;-86
2022/09/25 01:12:54;;;;;;;0.00;0.00;;;13.10;99.90;;;;;;5084341;28;20138;-86
2022/09/25 01:15:27;;;;;;;0.00;0.00;;;13.10;99.90;;;;;;5082040;28;20047;-86
2022/09/25 01:18:01;;;;;;;0.00;0.00;;;13.10;99.90;;;;;;5088459;28;20052;-86
2022/09/25 01:20:49;;;;;;;0.00;0.00;;;13.20;99.90;;;;;;5086245;28;20491;-87
2022/09/25 01:23:27;;;;;;;0.00;0.00;;;13.10;99.90;;;;;;5082034;28;20082;-86
2022/09/25 01:26:03;;;;;;;0.00;0.00;;;13.10;99.90;;;;;;5084533;28;20115;-86
2022/09/25 01:28:55;;;;;;;0.00;0.00;;;13.10;99.90;;;;;;5081634;28;20403;-86
2022/09/25 01:31:31;;;;;;;0.00;0.00;;;12.90;99.90;;;;;;5085436;28;20411;-86
2022/09/25 01:34:02;;;;;;;0.00;0.00;;;12.90;99.90;;;;;;5085126;28;20044;-86
2022/09/25 01:36:35;;;;;;;0.00;0.00;;;12.90;99.90;;;;;;5086591;28;20484;-86
2022/09/25 01:39:09;;;;;;;0.00;0.00;;;12.90;99.90;;;;;;5089309;28;20130;-86
2022/09/25 01:41:44;;;;;;;0.00;0.00;;;12.90;99.90;;;;;;5085984;28;20076;-85
2022/09/25 01:44:18;;;;;;;0.00;0.00;;;13.00;99.90;;;;;;5086025;28;20033;-86
2022/09/25 01:46:47;;;;;;;0.00;0.00;;;12.90;99.90;;;;;;5080418;28;20067;-88
2022/09/25 01:49:23;;;;;;;0.00;0.00;;;12.90;99.90;;;;;;5092740;28;20071;-86
2022/09/25 01:51:52;;;;;;;0.00;0.00;;;12.90;99.90;;;;;;5089066;28;20040;-87
2022/09/25 01:54:25;;;;;;;0.00;0.00;;;12.90;99.90;;;;;;5097222;28;20048;-87
2022/09/25 01:56:57;;;;;;;0.00;0.00;;;12.90;99.90;;;;;;5079298;28;20049;-86
2022/09/25 01:59:32;;;;;;;0.00;0.00;;;12.90;99.90;;;;;;5091784;28;20479;-86
2022/09/25 02:02:02;;;;;;;0.00;0.00;;;12.90;99.90;;;;;;5092378;28;20123;-87
2022/09/25 02:04:34;;;;;;;0.00;0.00;;;12.80;99.90;;;;;;5086212;28;20086;-86
2022/09/25 02:07:05;;;;;;;0.00;0.00;;;12.70;99.90;;;;;;5083840;28;20102;-85
2022/09/25 02:09:37;;;;;;;0.00;0.00;;;12.70;99.90;;;;;;5095007;28;20108;-87
2022/09/25 02:12:10;;;;;;;0.00;0.00;;;12.60;99.90;;;;;;5085826;28;20071;-88
2022/09/25 02:14:43;;;;;;;0.00;0.00;;;12.60;99.90;;;;;;5092415;28;20071;-85
2022/09/25 02:20:30;;;;;;;0.00;0.00;;;12.40;99.90;;;;;;5089925;28;20032;-85
2022/09/25 02:22:50;;;;;;;0.00;0.00;;;12.20;99.90;;;;;;5086888;28;20079;-84
2022/09/25 02:25:24;;;;;;;0.00;0.00;;;12.30;99.90;;;;;;5083966;28;20120;-88
2022/09/25 02:27:52;;;;;;;0.00;0.00;;;;;;;;;;5085737;28;20076;-86
2022/09/25 02:30:20;;;;;;;0.00;0.00;;;12.10;99.90;;;;;;5084124;28;20083;-87
2022/09/25 02:32:47;;;;;;;0.00;0.00;;;12.20;99.90;;;;;;5091820;28;20516;-88
2022/09/25 02:35:14;;;;;;;0.00;0.00;;;12.20;99.90;;;;;;5082932;28;20082;-87
2022/09/25 02:37:41;;;;;;;0.00;0.00;;;11.90;99.90;;;;;;5087940;28;20056;-88
2022/09/25 02:40:10;;;;;;;0.00;0.00;;;11.80;99.90;;;;;;5081569;28;20487;-86
2022/09/25 02:42:46;;;;;;;0.10;0.10;;;12.10;99.90;;;;;;5085382;28;20055;-87
2022/09/25 02:45:28;;;;;;;0.10;0.10;;;12.10;99.90;;;;;;5084547;28;20042;-85
2022/09/25 02:48:03;;;;;;;0.00;0.00;;;12.10;99.90;;;;;;5085576;28;20075;-87
2022/09/25 02:50:37;;;;;;;0.00;0.00;;;12.20;99.90;;;;;;5085429;28;20049;-86
2022/09/25 02:53:08;;;;;;;0.00;0.00;;;12.30;99.90;;;;;;5084677;28;20100;-86
2022/09/25 02:55:39;;;;;;;0.00;0.00;;;12.20;99.90;;;;;;5084684;28;20542;-83
2022/09/25 02:58:13;;;;;;;0.00;0.00;;;12.30;99.90;;;;;;5078369;28;20111;-86
2022/09/25 03:00:43;;;;;;;0.00;0.00;;;12.30;99.90;;;;;;5082286;28;20036;-86
2022/09/25 03:03:14;;;;;;;0.00;0.00;;;12.20;99.90;;;;;;5083570;28;20047;-84
2022/09/25 03:05:41;;;;;;;0.00;0.00;;;12.20;99.90;;;;;;5088856;28;20161;-85
2022/09/25 03:10:56;;;;;;;0.00;0.00;;;12.10;99.90;;;;;;5083075;28;20056;-85
2022/09/25 03:13:30;;;;;;;0.00;0.00;;;12.10;99.90;;;;;;5081250;28;20046;-86
2022/09/25 03:16:01;;;;;;;0.00;0.00;;;12.10;99.90;;;;;;5079396;28;20385;-85
2022/09/25 03:18:29;;;;;;;0.10;0.10;;;12.10;99.90;;;;;;5088253;28;20098;-88
2022/09/25 03:20:56;;;;;;;0.10;0.10;;;12.00;99.90;;;;;;5090477;28;20075;-86
2022/09/25 03:23:24;;;;;;;0.00;0.00;;;12.00;99.90;;;;;;5094027;22;20072;-80
2022/09/25 03:25:52;;;;;;;0.00;0.00;;;12.00;99.90;;;;;;5048435;28;20076;-79
2022/09/25 03:28:20;;;;;;;0.00;0.00;;;11.90;99.90;;;;;;5041227;28;20076;-77
2022/09/25 03:30:55;;;;;;;0.00;0.00;;;11.90;99.90;;;;;;5043080;28;20065;-79
2022/09/25 03:33:24;;;;;;;0.00;0.00;;;11.90;99.90;;;;;;5041578;28;20057;-81
2022/09/25 03:35:59;;;;;;;0.00;0.00;;;11.90;99.90;;;;;;5027887;28;20049;-81
2022/09/25 03:38:26;;;;;;;0.00;0.00;;;11.90;99.90;;;;;;5032521;28;20051;-78
2022/09/25 03:40:53;;;;;;;0.00;0.00;;;12.00;99.90;;;;;;5023379;28;20127;-79
2022/09/25 03:43:20;;;;;;;0.00;0.00;;;12.00;99.90;;;;;;5039125;28;20045;-78
2022/09/25 03:45:46;;;;;;;0.00;0.00;;;12.00;99.90;;;;;;5027417;28;20077;-78
2022/09/25 03:48:13;;;;;;;0.00;0.00;;;11.90;99.90;;;;;;5033049;28;20037;-77
2022/09/25 03:50:41;;;;;;;0.05;0.05;;;11.90;99.90;;;;;;5025412;28;20048;-80
2022/09/25 03:53:09;;;;;;;0.00;0.00;;;11.90;99.90;;;;;;5038284;28;20036;-80
2022/09/25 03:55:36;;;;;;;0.10;0.10;;;11.90;99.90;;;;;;5025289;28;20045;-78
2022/09/25 03:58:02;;;;;;;0.00;0.00;;;11.90;99.90;;;;;;5027189;28;20041;-79
2022/09/25 04:00:29;;;;;;;0.00;0.00;;;11.90;99.90;;;;;;5031177;28;20046;-80
2022/09/25 04:02:58;;;;;;;0.00;0.00;;;11.90;99.90;;;;;;5035048;28;20513;-79
2022/09/25 04:05:24;;;;;;;0.00;0.00;;;11.90;99.90;;;;;;5027286;28;20045;-78
2022/09/25 04:07:53;;;;;;;0.05;0.05;;;11.80;99.90;;;;;;5033705;28;20045;-81
2022/09/25 04:10:19;;;;;;;0.00;0.00;;;11.80;99.90;;;;;;5029587;28;20045;-78
2022/09/25 04:12:46;;;;;;;0.00;0.00;;;11.70;99.90;;;;;;5033346;28;20052;-78
2022/09/25 04:15:13;;;;;;;0.00;0.00;;;11.60;99.90;;;;;;5032421;28;20037;-78
2022/09/25 04:17:40;;;;;;;0.00;0.00;;;11.60;99.90;;;;;;5044272;28;20052;-80
2022/09/25 04:20:08;;;;;;;0.08;0.08;;;11.60;99.90;;;;;;5032228;28;20264;-80
2022/09/25 04:22:35;;;;;;;0.00;0.00;;;11.60;99.90;;;;;;5037198;28;20493;-79
2022/09/25 04:25:04;;;;;;;0.00;0.00;;;11.60;99.90;;;;;;5034597;28;20047;-80
2022/09/25 04:27:31;;;;;;;0.00;0.00;;;11.60;99.90;;;;;;5034051;28;20052;-80
2022/09/25 04:30:00;;;;;;;0.00;0.00;;;11.70;99.90;;;;;;5043492;28;20051;-80
2022/09/25 04:35:12;;;;;;;0.00;0.00;;;11.60;99.90;;;;;;5035681;28;20045;-80
2022/09/25 04:37:39;;;;;;;0.00;0.00;;;11.60;99.90;;;;;;5038835;28;20503;-79
2022/09/25 04:40:08;;;;;;;0.00;0.00;;;11.70;99.90;;;;;;5040285;28;20176;-78
2022/09/25 04:42:35;;;;;;;0.00;0.00;;;11.70;99.90;;;;;;5054345;28;20048;-78
2022/09/25 04:45:02;;;;;;;0.00;0.00;;;11.60;99.90;;;;;;5035955;28;20056;-80
2022/09/25 04:47:29;;;;;;;0.00;0.00;;;11.60;99.90;;;;;;5036165;28;20048;-80
2022/09/25 04:49:56;;;;;;;0.10;0.10;;;11.70;99.90;;;;;;5042813;28;20056;-78
2022/09/25 04:52:22;;;;;;;0.00;0.00;;;11.60;99.90;;;;;;5030820;28;20464;-79
2022/09/25 04:54:49;;;;;;;0.00;0.00;;;11.60;99.90;;;;;;5040177;28;20037;-81
2022/09/25 04:57:19;;;;;;;0.08;0.08;;;11.60;99.90;;;;;;5039787;28;20057;-78
2022/09/25 05:00:06;;;;;;;;;;;11.60;99.90;;;;;;5034784;28;20041;-80
2022/09/25 05:02:33;;;;;;;0.10;0.10;;;11.60;99.90;;;;;;5055836;28;19968;-81
2022/09/25 05:05:00;;;;;;;0.10;0.10;;;11.50;99.90;;;;;;5034681;28;20048;-78
2022/09/25 05:07:27;;;;;;;0.00;0.00;;;11.50;99.90;;;;;;5039533;28;20386;-81
2022/09/25 05:09:54;;;;;;;0.00;0.00;;;11.50;99.90;;;;;;5037936;28;20072;-80
2022/09/25 05:12:22;;;;;;;0.00;0.00;;;11.50;99.90;;;;;;5042531;28;20037;-79
2022/09/25 05:14:48;;;;;;;0.10;0.10;;;11.40;99.90;;;;;;5037449;28;20072;-80
2022/09/25 05:17:15;;;;;;;0.10;0.10;;;11.40;99.90;;;;;;5031369;28;20050;-80
2022/09/25 05:19:42;;;;;;;0.08;0.08;;;11.50;99.90;;;;;;5032880;28;20072;-81
2022/09/25 05:22:09;;;;;;;0.00;0.00;;;11.50;99.90;;;;;;5038136;28;20036;-80
2022/09/25 05:24:37;;;;;;;0.00;0.00;;;11.50;99.90;;;;;;5038257;28;20516;-78
2022/09/25 05:27:04;;;;;;;0.00;0.00;;;11.50;99.90;;;;;;5037748;28;20035;-80
2022/09/25 05:29:32;;;;;;;0.00;0.00;;;11.50;99.90;;;;;;5035281;28;20076;-81
2022/09/25 05:31:59;;;;;;;0.00;0.00;;;11.50;99.90;;;;;;5038475;28;20401;-78
2022/09/25 05:34:26;;;;;;;0.10;0.10;;;11.50;99.90;;;;;;5041594;28;20398;-81
2022/09/25 05:36:53;;;;;;;0.10;0.10;;;11.40;99.90;;;;;;5033910;28;20052;-79
2022/09/25 05:39:20;;;;;;;0.00;0.00;;;11.40;99.90;;;;;;5027822;28;20051;-81
2022/09/25 05:41:46;;;;;;;0.00;0.00;;;11.40;99.90;;;;;;5033905;28;20048;-80
2022/09/25 05:44:13;;;;;;;0.00;0.00;;;11.50;99.90;;;;;;5042377;28;20036;-80
2022/09/25 05:46:41;;;;;;;0.00;0.00;;;11.50;99.90;;;;;;5044123;28;20041;-79
2022/09/25 05:49:08;;;;;;;0.10;0.10;;;11.50;99.90;;;;;;5036547;28;20049;-81
2022/09/25 05:51:35;;;;;;;0.00;0.00;;;11.50;99.90;;;;;;5046720;28;20043;-79
2022/09/25 05:54:02;;;;;;;0.00;0.00;;;11.50;99.90;;;;;;5036884;28;20033;-83
2022/09/25 05:56:29;;;;;;;0.00;0.00;;;11.40;99.90;;;;;;5041482;28;20079;-79
2022/09/25 05:58:57;;;;;;;0.00;0.00;;;11.40;99.90;;;;;;5041758;28;20052;-81
2022/09/25 06:01:24;;;;;;;0.00;0.00;;;11.40;99.90;;;;;;5039421;28;20049;-80
2022/09/25 06:03:53;;;;;;;0.00;0.00;;;11.50;99.90;;;;;;5038681;28;20053;-80
2022/09/25 06:06:20;;;;;;;0.00;0.00;;;11.60;99.90;;;;;;5039579;28;20041;-81
2022/09/25 06:08:53;;;;;;;0.08;0.08;;;11.60;99.90;;;;;;5043033;28;20048;-81
2022/09/25 06:11:19;;;;;;;0.00;0.00;;;11.50;99.90;;;;;;5041160;28;20493;-80
2022/09/25 06:13:47;;;;;;;0.10;0.10;;;11.40;99.90;;;;;;5044092;28;20083;-80
2022/09/25 06:16:20;;;;;;;0.00;0.00;;;11.30;99.90;;;;;;5044590;28;20042;-78
2022/09/25 06:18:47;;;;;;;0.10;0.10;;;11.30;99.90;;;;;;5044349;28;20501;-82
2022/09/25 06:21:15;;;;;;;0.00;0.00;;;11.30;99.90;;;;;;5048294;28;20463;-80
2022/09/25 06:23:45;;;;;;;0.00;0.00;;;11.40;99.90;;;;;;5040708;28;20053;-80
2022/09/25 06:26:13;;;;;;;0.00;0.00;;;11.40;99.90;;;;;;5045345;28;20040;-78
2022/09/25 06:28:39;;;;;;;0.00;0.00;;;11.40;99.90;;;;;;5034340;28;20053;-81
2022/09/25 06:31:06;;;;;;;0.00;0.00;;;11.50;99.90;;;;;;5026697;28;20041;-80
2022/09/25 06:33:33;;;;;;;0.08;0.08;;;11.50;99.90;;;;;;5039396;28;20045;-81
2022/09/25 06:36:00;;;;;;;0.20;0.10;;;11.60;99.90;;;;;;5039344;28;20045;-80
2022/09/25 06:38:28;;;;;;;0.00;0.00;;;11.50;99.90;;;;;;5035659;28;20049;-81
2022/09/25 06:40:57;;;;;;;0.00;0.00;;;11.50;99.90;;;;;;5040251;28;20049;-80
2022/09/25 06:43:27;;;;;;;0.00;0.00;;;11.60;99.90;;;;;;5044077;28;20045;-81
2022/09/25 06:45:53;;;;;;;0.00;0.00;;;11.50;99.90;;;;;;5043338;28;20056;-79
2022/09/25 06:48:21;;;;;;;0.00;0.00;;;11.50;99.90;;;;;;5043872;28;20108;-81
2022/09/25 06:50:50;;;;;;;0.00;0.00;;;11.40;99.90;;;;;;5040116;28;20421;-79
2022/09/25 06:53:19;;;;;;;0.00;0.00;;;11.50;99.90;;;;;;5043971;28;20039;-82
2022/09/25 06:55:48;;;;;;;0.00;0.00;;;11.50;99.90;;;;;;5040342;28;20467;-80
2022/09/25 06:58:18;;;;;;;0.00;0.00;;;11.40;99.90;;;;;;5036896;28;20064;-81
2022/09/25 07:00:45;;;;;;;0.00;0.00;;;11.50;99.90;;;;;;5043683;28;20099;-80
2022/09/25 07:05:59;;;;;;;0.00;0.00;;;11.60;99.90;;;;;;5041549;28;20071;-81
2022/09/25 07:08:26;;;;;;;0.00;0.00;;;11.60;99.90;;;;;;5054517;28;20335;-81
2022/09/25 07:10:56;;;;;;;0.00;0.00;;;11.60;99.90;;;;;;5053312;28;20467;-82
2022/09/25 07:13:26;;;;;;;0.00;0.00;;;11.70;99.90;;;;;;5040660;28;20052;-81
2022/09/25 07:15:55;;;;;;;0.00;0.00;;;11.70;99.90;;;;;;5053795;28;20045;-81
2022/09/25 07:18:23;;;;;;;0.00;0.00;;;11.80;99.90;;;;;;5046508;28;20049;-83
2022/09/25 07:20:51;;;;;;;0.10;0.10;;;11.70;99.90;;;;;;5048776;28;20127;-80
2022/09/25 07:23:19;;;;;;;0.00;0.00;;;11.80;99.90;;;;;;5046395;28;20124;-81
2022/09/25 07:25:46;;;;;;;0.00;0.00;;;11.80;99.90;;;;;;5043156;28;20049;-80
2022/09/25 07:28:17;;;;;;;0.00;0.00;;;11.90;99.90;;;;;;5046487;28;20065;-80
2022/09/25 07:30:45;;;;;;;0.00;0.00;;;12.00;99.90;;;;;;5030545;28;20072;-80
2022/09/25 07:33:12;;;;;;;0.00;0.00;;;11.90;99.90;;;;;;5031972;28;20075;-80
2022/09/25 07:35:39;;;;;;;0.00;0.00;;;11.80;99.90;;;;;;5034602;28;20037;-81
2022/09/25 07:38:05;;;;;;;0.00;0.00;;;11.80;99.90;;;;;;5032400;28;20079;-80
2022/09/25 07:40:34;;;;;;;0.00;0.00;;;11.90;99.90;;;;;;5041915;28;20045;-81
2022/09/25 07:43:01;;;;;;;0.00;0.00;;;11.90;99.90;;;;;;5031683;28;20055;-78
2022/09/25 07:45:30;;;;;;;0.00;0.00;;;13.70;99.90;;;;;;5038201;28;20436;-80
2022/09/25 07:47:57;;;;;;;0.03;0.03;;;12.10;99.90;;;;;;5030221;28;20079;-80
2022/09/25 07:50:24;;;;;;;0.00;0.00;;;12.10;99.90;;;;;;5030596;28;20041;-79
2022/09/25 07:52:52;;;;;;;0.00;0.00;;;12.10;99.90;;;;;;5034572;28;20045;-79
2022/09/25 07:55:19;;;;;;;0.00;0.00;;;12.10;99.90;;;;;;5038570;28;20045;-79
2022/09/25 07:57:47;;;;;;;0.00;0.00;;;12.10;99.90;;;;;;5034813;28;20053;-80
2022/09/25 08:00:14;;;;;;;0.00;0.00;;;12.20;99.90;;;;;;5044146;28;20045;-81
2022/09/25 08:02:43;;;;;;;0.00;0.00;;;12.20;99.90;;;;;;5038187;28;20490;-79
2022/09/25 08:05:10;;;;;;;0.00;0.00;;;12.30;99.90;;;;;;5029605;28;20050;-81
2022/09/25 08:07:37;;;;;;;0.00;0.00;;;12.30;99.90;;;;;;5043817;28;20529;-79
2022/09/25 08:10:05;;;;;;;0.00;0.00;;;12.40;99.90;;;;;;5043509;28;20044;-80
2022/09/25 08:12:32;;;;;;;0.00;0.00;;;12.40;99.90;;;;;;5032287;28;20049;-80
2022/09/25 08:14:58;;;;;;;0.00;0.00;;;12.50;99.90;;;;;;5039096;28;20049;-80
2022/09/25 08:17:30;;;;;;;0.00;0.00;;;12.50;99.90;;;;;;5032891;28;20041;-80
2022/09/25 08:19:59;;;;;;;0.00;0.00;;;12.60;99.90;;;;;;5031797;28;20049;-80
2022/09/25 08:22:26;;;;;;;0.00;0.00;;;12.70;99.90;;;;;;5026202;28;20041;-79
2022/09/25 08:24:53;;;;;;;0.00;0.00;;;12.80;99.90;;;;;;5023610;28;20084;-81
2022/09/25 08:27:20;;;;;;;0.00;0.00;;;12.80;99.90;;;;;;5025044;28;20417;-78
2022/09/25 08:29:47;;;;;;;0.00;0.00;;;12.90;99.90;;;;;;5026260;28;20041;-80
2022/09/25 08:32:14;;;;;;;0.00;0.00;;;12.90;99.90;;;;;;5023621;28;20494;-79
2022/09/25 08:34:41;;;;;;;0.00;0.00;;;13.00;99.90;;;;;;5020285;28;20081;-80
2022/09/25 08:37:09;;;;;;;0.00;0.00;;;12.90;99.90;;;;;;5032449;28;20090;-80
2022/09/25 08:39:36;;;;;;;0.00;0.00;;;13.00;99.90;;;;;;5028464;28;20489;-79
2022/09/25 08:42:04;;;;;;;0.00;0.00;;;13.00;99.90;;;;;;5035814;28;20029;-79
2022/09/25 08:44:36;;;;;;;0.00;0.00;;;12.90;99.90;;;;;;5012532;28;20374;-79
2022/09/25 08:50:04;;;;;;;0.00;0.00;;;12.80;99.90;;;;;;5020053;28;20044;-80
2022/09/25 08:52:34;;;;;;;0.00;0.00;;;12.90;99.90;;;;;;5017307;28;20037;-78
2022/09/25 08:55:00;;;;;;;0.00;0.00;;;12.80;99.90;;;;;;5026434;28;20088;-80
2022/09/25 08:57:33;;;;;;;0.00;0.00;;;12.80;99.90;;;;;;5017539;28;20052;-78
2022/09/25 09:00:03;;;;;;;0.00;0.00;;;13.00;99.90;;;;;;5024840;28;20547;-80
2022/09/25 09:02:37;;;;;;;;;;;13.10;99.90;;;;;;5025977;28;20096;-80
2022/09/25 09:05:13;;;;;;;0.00;0.00;;;13.20;99.90;;;;;;5023351;28;20298;-79
2022/09/25 09:07:45;;;;;;;0.00;0.00;;;13.10;99.90;;;;;;5015643;28;20116;-78
2022/09/25 09:10:27;;;;;;;0.00;0.00;;;13.30;99.90;;;;;;5021771;28;20318;-80
2022/09/25 09:12:58;;;;;;;0.03;0.03;;;13.30;99.90;;;;;;5022809;28;20049;-78
2022/09/25 09:15:34;;;;;;;0.00;0.00;;;13.40;99.90;;;;;;5024994;28;20118;-79
2022/09/25 09:18:13;;;;;;;0.00;0.00;;;13.40;99.90;;;;;;5029151;28;20044;-80
2022/09/25 09:20:44;;;;;;;0.00;0.00;;;13.40;99.90;;;;;;5025661;28;20419;-79
2022/09/25 09:25:51;;;;;;;0.00;0.00;;;13.70;99.90;;;;;;5050360;28;20045;-80
2022/09/25 09:28:41;;;;;;;0.00;0.00;;;13.70;99.90;;;;;;5040006;28;20138;-79
2022/09/25 09:31:13;;;;;;;0.00;0.00;;;13.80;99.90;;;;;;5046790;28;20146;-79
2022/09/25 09:33:51;;;;;;;0.00;0.00;;;13.90;99.90;;;;;;5048128;28;20033;-80
2022/09/25 09:36:24;;;;;;;0.00;0.00;;;14.00;99.90;;;;;;5029727;28;20037;-81
2022/09/25 09:39:00;;;;;;;0.00;0.00;;;14.00;99.90;;;;;;5014833;28;20049;-80
2022/09/25 09:41:42;;;;;;;0.00;0.00;;;14.10;99.90;;;;;;5025869;28;20249;-79
2022/09/25 09:44:29;;;;;;;0.00;0.00;;;14.00;99.90;;;;;;5030785;28;20115;-80
2022/09/25 09:47:03;;;;;;;0.00;0.00;;;14.00;99.90;;;;;;5030193;28;20061;-79
2022/09/25 09:49:35;;;;;;;0.00;0.00;;;14.10;99.90;;;;;;5032469;28;20037;-80
2022/09/25 09:52:08;;;;;;;0.00;0.00;;;14.30;99.90;;;;;;5027856;28;20051;-79
2022/09/25 09:54:41;;;;;;;0.00;0.00;;;14.30;99.90;;;;;;5015832;28;20046;-80
2022/09/25 09:57:16;;;;;;;0.00;0.00;;;14.30;99.90;;;;;;5015286;28;20049;-81
2022/09/25 09:59:47;;;;;;;0.00;0.00;;;14.40;99.90;;;;;;5029515;28;20133;-79
2022/09/25 10:02:26;;;;;;;0.00;0.00;;;14.50;99.90;;;;;;5012921;28;20065;-79
2022/09/25 10:04:54;;;;;;;0.00;0.00;;;14.40;99.90;;;;;;5031503;28;20050;-80
2022/09/25 10:07:22;;;;;;;0.00;0.00;;;14.50;99.90;;;;;;5013539;28;20034;-81
2022/09/25 10:09:49;;;;;;;0.00;0.00;;;14.50;99.90;;;;;;5016916;28;20107;-80
2022/09/25 10:12:27;;;;;;;0.00;0.00;;;14.70;99.90;;;;;;5029864;28;20445;-80
2022/09/25 10:14:56;;;;;;;0.00;0.00;;;14.80;99.90;;;;;;5015018;28;20063;-81
2022/09/25 10:17:24;;;;;;;0.00;0.00;;;14.90;99.90;;;;;;5030734;28;20120;-80
2022/09/25 10:19:54;;;;;;;0.00;0.00;;;14.80;99.90;;;;;;5014576;28;20100;-82
2022/09/25 10:22:25;;;;;;;0.00;0.00;;;14.70;99.90;;;;;;5030028;28;20077;-80
2022/09/25 10:24:57;;;;;;;0.00;0.00;;;14.60;99.90;;;;;;5012500;28;20093;-79
2022/09/25 10:27:31;;;;;;;0.00;0.00;;;14.60;99.90;;;;;;5029471;28;20051;-80
2022/09/25 10:30:18;;;;;;;0.00;0.00;;;14.60;99.90;;;;;;5023548;28;20098;-79
2022/09/25 10:32:58;;;;;;;0.00;0.00;;;14.60;99.90;;;;;;5018089;28;20412;-81
2022/09/25 10:35:28;;;;;;;0.00;0.00;;;14.50;99.90;;;;;;5015547;28;20049;-79
2022/09/25 10:37:59;;;;;;;0.00;0.00;;;14.50;99.90;;;;;;5014845;28;20037;-80
2022/09/25 10:40:30;;;;;;;0.00;0.00;;;14.50;99.90;;;;;;5013345;28;20506;-80
2022/09/25 10:43:16;;;;;;;0.00;0.00;;;14.60;99.90;;;;;;5027810;28;20448;-80
2022/09/25 10:45:43;;;;;;;0.00;0.00;;;14.80;99.90;;;;;;5025758;28;20509;-81
2022/09/25 10:51:17;;;;;;;0.00;0.00;;;15.10;99.90;;;;;;5027824;28;20045;-80
2022/09/25 10:53:45;;;;;;;0.00;0.00;;;15.30;99.90;;;;;;5026156;28;20046;-81
2022/09/25 10:56:17;;;;;;;0.00;0.00;;;15.40;99.90;;;;;;5009105;28;20489;-81
2022/09/25 10:58:49;;;;;;;0.00;0.00;;;15.50;99.90;;;;;;5025586;28;20069;-81
2022/09/25 11:01:16;;;;;;;0.00;0.00;;;15.60;99.90;;;;;;5013291;28;20041;-80
2022/09/25 11:03:47;;;;;;;0.00;0.00;;;15.50;99.90;;;;;;5031658;28;20092;-79
2022/09/25 11:06:23;;;;;;;0.00;0.00;;;15.30;99.90;;;;;;5026977;28;20072;-80
2022/09/25 11:08:58;;;;;;;0.00;0.00;;;15.10;99.90;;;;;;5015170;28;20100;-80
2022/09/25 11:11:25;;;;;;;0.00;0.00;;;15.10;99.90;;;;;;5011142;28;20504;-81
2022/09/25 11:13:57;;;;;;;0.00;0.00;;;15.10;99.90;;;;;;5013381;28;20041;-81
2022/09/25 11:16:46;;;;;;;0.00;0.00;;;15.20;99.90;;;;;;5030587;28;20037;-81
2022/09/25 11:19:16;;;;;;;0.00;0.00;;;15.40;99.90;;;;;;5013722;28;20414;-79
2022/09/25 11:21:48;;;;;;;0.00;0.00;;;15.70;99.90;;;;;;5013025;28;20033;-80
2022/09/25 11:24:22;;;;;;;0.00;0.00;;;15.90;99.90;;;;;;5029028;28;20069;-82
2022/09/25 11:26:56;;;;;;;0.00;0.00;;;15.80;99.90;;;;;;5027554;28;20037;-82
2022/09/25 11:29:34;;;;;;;0.00;0.00;;;15.70;99.90;;;;;;5017545;28;20068;-81
2022/09/25 11:32:09;;;;;;;0.00;0.00;;;15.60;99.90;;;;;;5007702;28;20045;-79
2022/09/25 11:34:55;;;;;;;0.00;0.00;;;15.60;99.90;;;;;;5030652;28;20049;-82
2022/09/25 11:37:26;;;;;;;0.00;0.00;;;15.60;99.90;;;;;;5010482;28;20041;-80
2022/09/25 11:42:52;;;;;;;0.00;0.00;;;15.40;99.90;;;;;;5027005;28;20064;-80
2022/09/25 11:45:29;;;;;;;0.00;0.00;;;15.10;99.90;;;;;;5014287;28;20130;-80
2022/09/25 11:48:04;;;;;;;0.00;0.00;;;15.10;99.90;;;;;;5038061;28;20068;-79
2022/09/25 11:50:39;;;;;;;0.00;0.00;;;15.00;99.90;;;;;;5011443;28;20362;-80
2022/09/25 11:53:19;;;;;;;0.00;0.00;;;15.00;99.90;;;;;;5007224;28;20047;-81
2022/09/25 11:55:53;;;;;;;;;;;14.90;99.90;;;;;;5012556;28;20463;-80
2022/09/25 11:58:40;;;;;;;0.00;0.00;;;14.80;99.90;;;;;;5013554;28;19943;-80
2022/09/25 12:01:18;;;;;;;0.00;0.00;;;14.90;99.90;;;;;;5008297;28;20061;-81
2022/09/25 12:04:13;;;;;;;0.00;0.00;;;15.10;99.90;;;;;;5019064;28;20426;-80
2022/09/25 12:06:59;;;;;;;0.00;0.00;;;15.20;99.90;;;;;;5011740;28;20108;-79
2022/09/25 12:09:47;;;;;;;0.00;0.00;;;15.10;99.90;;;;;;5030961;28;20043;-79
2022/09/25 12:12:23;;;;;;;0.00;0.00;;;15.10;99.90;;;;;;5021877;28;20046;-79
2022/09/25 12:14:58;;;;;;;0.00;0.00;;;15.30;99.90;;;;;;5012988;28;20046;-80
2022/09/25 12:17:35;;;;;;;0.00;0.00;;;15.40;99.90;;;;;;5012929;28;20508;-80
2022/09/25 12:20:10;;;;;;;0.00;0.00;;;15.50;99.90;;;;;;5006760;28;20033;-79
2022/09/25 12:22:47;;;;;;;0.00;0.00;;;15.70;99.90;;;;;;5030750;28;20037;-80
2022/09/25 12:25:29;;;;;;;0.00;0.00;;;15.80;99.90;;;;;;5010908;28;20068;-79
2022/09/25 12:28:01;;;;;;;0.00;0.00;;;15.90;99.90;;;;;;5011413;28;20077;-81
2022/09/25 12:30:35;;;;;;;0.00;0.00;;;15.90;99.90;;;;;;5004792;28;20046;-80
2022/09/25 12:33:14;;;;;;;0.00;0.00;;;15.90;99.90;;;;;;5009834;28;20470;-81
2022/09/25 12:35:49;;;;;;;0.00;0.00;;;15.80;99.90;;;;;;5010581;28;20489;-81
2022/09/25 12:38:25;;;;;;;0.00;0.00;;;15.80;99.90;;;;;;5027966;28;20037;-80
2022/09/25 12:40:58;;;;;;;0.00;0.00;;;15.80;99.90;;;;;;5011278;28;20045;-79
2022/09/25 12:43:32;;;;;;;0.00;0.00;;;15.80;99.90;;;;;;5029165;28;20099;-79
2022/09/25 12:46:05;;;;;;;0.00;0.00;;;15.90;99.90;;;;;;5023448;28;20053;-80
2022/09/25 12:48:37;;;;;;;0.00;0.00;;;15.90;99.90;;;;;;5036044;28;20038;-80
2022/09/25 12:51:10;;;;;;;0.00;0.00;;;15.80;99.90;;;;;;5025604;28;20133;-80
2022/09/25 12:53:42;;;;;;;0.00;0.00;;;15.80;99.90;;;;;;5034503;28;20050;-82
2022/09/25 12:56:13;;;;;;;0.00;0.00;;;15.80;99.90;;;;;;5028899;28;20073;-81
2022/09/25 12:59:10;;;;;;;0.00;0.00;;;15.90;99.90;;;;;;5015296;28;20100;-81
2022/09/25 13:01:45;;;;;;;0.00;0.00;;;16.10;99.90;;;;;;4963883;28;20506;-81
2022/09/25 13:04:45;;;;;;;0.00;0.00;;;16.30;99.90;;;;;;5016813;28;20044;-80
2022/09/25 13:07:18;;;;;;;0.00;0.00;;;16.60;99.90;;;;;;5015298;28;20461;-81
2022/09/25 13:09:46;;;;;;;0.00;0.00;;;16.80;99.90;;;;;;5034760;28;20214;-79
2022/09/25 13:12:20;;;;;;;0.00;0.00;;;16.80;99.90;;;;;;5016605;28;20503;-79
2022/09/25 13:14:52;;;;;;;0.00;0.00;;;16.80;99.90;;;;;;5032981;28;20046;-79
2022/09/25 13:17:19;;;;;;;0.00;0.00;;;16.70;99.90;;;;;;5016151;28;20041;-81
2022/09/25 13:19:49;;;;;;;0.00;0.00;;;16.30;99.90;;;;;;5033482;28;20034;-79
2022/09/25 13:22:20;;;;;;;0.00;0.00;;;15.90;99.90;;;;;;5015318;28;20045;-79
2022/09/25 13:24:52;;;;;;;0.00;0.00;;;15.60;99.90;;;;;;5032096;28;20072;-81
2022/09/25 13:27:22;;;;;;;0.00;0.00;;;15.50;99.90;;;;;;5013044;28;20125;-79
2022/09/25 13:29:54;;;;;;;0.00;0.00;;;15.50;99.90;;;;;;5015459;28;20414;-81
2022/09/25 13:32:23;;;;;;;0.00;0.00;;;15.40;99.90;;;;;;5010187;28;20088;-80